Time;durP1;ratioP1;P1;durP2;ratioP2;P2;SDS_P1;SDS_P2;PMS_P1;PMS_P2;Temp;Humidity;BMP_temperature;BMP_pressure;BME280_temperature;BME280_humidity;BME280_pressure;Samples;Min_cycle;Max_cycle;Signal;HPM_P1;HPM_P2
2023/06/18 00:00:53;;;;;;;13.70;8.95;;;;;;;;;;5077597;28;20028;-77
2023/06/18 00:03:20;;;;;;;13.00;8.68;;;;;;;;;;5096047;28;20031;-76
2023/06/18 00:05:45;;;;;;;13.88;8.68;;;;;;;;;;5077896;28;20020;-75
2023/06/18 00:08:14;;;;;;;17.17;10.20;;;;;;;;;;5077529;28;20093;-75
2023/06/18 00:11:03;;;;;;;11.60;8.70;;;;;;;;;;5095658;28;20099;-76
2023/06/18 00:13:38;;;;;;;13.68;9.15;;;;;;;;;;5095339;28;20032;-76
2023/06/18 00:16:10;;;;;;;13.98;8.82;;;;;;;;;;5075057;28;20059;-74
2023/06/18 00:18:36;;;;;;;15.43;8.82;;;;;;;;;;5095171;28;20016;-74
2023/06/18 00:21:07;;;;;;;13.15;9.35;;;;;;;;;;5096111;28;20024;-75
2023/06/18 00:23:35;;;;;;;12.40;9.77;;;;;;;;;;5096695;28;20024;-75
2023/06/18 00:26:00;;;;;;;13.15;8.73;;;;;;;;;;5078139;28;20055;-74
2023/06/18 00:28:25;;;;;;;14.23;9.47;;;;;;;;;;5096241;28;20035;-76
2023/06/18 00:30:52;;;;;;;15.53;10.00;;;;;;;;;;5095691;28;20277;-74
2023/06/18 00:33:17;;;;;;;14.82;9.63;;;;;;;;;;5097246;28;20336;-75
2023/06/18 00:35:43;;;;;;;10.88;8.80;;;;;;;;;;5078084;28;20480;-75
2023/06/18 00:38:09;;;;;;;15.05;9.65;;;;;;;;;;5096118;28;20015;-77
2023/06/18 00:40:40;;;;;;;13.90;10.63;;;;;;;;;;5095744;28;20020;-75
2023/06/18 00:43:14;;;;;;;14.80;10.05;;;;;;;;;;5096189;28;20028;-74
2023/06/18 00:45:40;;;;;;;13.50;9.60;;;;;;;;;;5094969;28;20090;-75
2023/06/18 00:48:17;;;;;;;13.33;10.10;;;;;;;;;;5094909;28;20128;-76
2023/06/18 00:50:44;;;;;;;17.08;10.23;;;;;;;;;;5094489;28;20273;-75
2023/06/18 00:53:13;;;;;;;15.32;9.48;;;;;;;;;;5094294;28;20058;-76
2023/06/18 00:55:41;;;;;;;15.57;10.20;;;;;;;;;;5076989;28;20024;-75
2023/06/18 00:58:06;;;;;;;15.13;10.45;;;;;;;;;;5095076;28;20154;-75
2023/06/18 01:00:34;;;;;;;15.48;10.88;;;;;;;;;;5094755;28;20457;-75
2023/06/18 01:03:15;;;;;;;15.38;10.43;;;;;;;;;;5094704;28;20024;-75
2023/06/18 01:05:50;;;;;;;15.18;10.50;;;;;;;;;;5094635;28;20480;-75
2023/06/18 01:08:23;;;;;;;15.98;10.25;;;;;;;;;;5094833;28;20024;-75
2023/06/18 01:11:09;;;;;;;17.58;10.85;;;;;;;;;;5078292;28;20376;-76
2023/06/18 01:13:40;;;;;;;15.77;11.82;;;;;;;;;;5095071;28;20079;-76
2023/06/18 01:16:06;;;;;;;19.70;11.70;;;;;;;;;;5078421;28;20039;-76
2023/06/18 01:18:35;;;;;;;16.90;11.32;;;;;;;;;;5077500;28;20008;-75
2023/06/18 01:21:05;;;;;;;17.27;10.40;;;;;;;;;;5077556;28;20105;-75
2023/06/18 01:23:37;;;;;;;20.73;11.57;;;;;;;;;;5078000;28;20028;-77
2023/06/18 01:26:11;;;;;;;18.38;11.63;;;;;;;;;;5077234;28;20051;-75
2023/06/18 01:28:41;;;;;;;19.33;11.55;;;;;;;;;;5095070;28;20085;-76
2023/06/18 01:31:08;;;;;;;21.73;12.38;;;;;;;;;;5095548;28;20051;-76
2023/06/18 01:33:34;;;;;;;18.98;11.85;;;;;;;;;;5077173;28;20032;-76
2023/06/18 01:36:00;;;;;;;20.88;11.70;;;;;;;;;;5094975;28;20020;-77
2023/06/18 01:38:31;;;;;;;19.08;11.20;;;;;;;;;;5077269;28;20047;-75
2023/06/18 01:41:29;;;;;;;17.20;10.88;;;;;;;;;;5094868;28;20372;-74
2023/06/18 01:44:05;;;;;;;20.48;12.05;;;;;;;;;;5093920;28;20040;-74
2023/06/18 01:46:30;;;;;;;21.55;12.23;;;;;;;;;;5059111;28;20048;-75
2023/06/18 01:49:17;;;;;;;16.13;11.25;;;;;;;;;;5092896;28;20032;-75
2023/06/18 01:51:43;;;;;;;18.92;10.73;;;;;;;;;;5091675;28;20035;-75
2023/06/18 01:54:12;;;;;;;18.38;11.43;;;;;;;;;;5094051;28;20480;-76
2023/06/18 01:56:38;;;;;;;15.40;10.82;;;;;;;;;;5094102;28;20091;-75
2023/06/18 01:59:04;;;;;;;18.67;11.05;;;;;;;;;;5094841;28;20026;-75
2023/06/18 02:01:31;;;;;;;19.17;12.02;;;;;;;;;;5094820;28;20038;-75
2023/06/18 02:03:56;;;;;;;17.83;11.50;;;;;;;;;;5094514;28;20028;-75
2023/06/18 02:06:22;;;;;;;17.27;11.30;;;;;;;;;;5094537;28;20016;-76
2023/06/18 02:08:47;;;;;;;16.17;11.87;;;;;;;;;;5094096;28;20063;-76
2023/06/18 02:11:13;;;;;;;20.30;11.70;;;;;;;;;;5094536;28;20323;-75
2023/06/18 02:13:39;;;;;;;17.88;12.15;;;;;;;;;;5094605;28;20020;-75
2023/06/18 02:16:05;;;;;;;17.97;11.97;;;;;;;;;;5094512;28;20023;-76
2023/06/18 02:18:39;;;;;;;18.70;11.35;;;;;;;;;;5094254;28;20801;-74
2023/06/18 02:21:04;;;;;;;19.15;11.27;;;;;;;;;;5094707;28;20334;-76
2023/06/18 02:23:29;;;;;;;20.70;12.43;;;;;;;;;;5092887;28;20031;-75
2023/06/18 02:25:58;;;;;;;24.27;12.57;;;;;;;;;;5093239;28;20035;-75
2023/06/18 02:28:24;;;;;;;18.30;12.13;;;;;;;;;;5093237;28;20020;-75
2023/06/18 02:30:49;;;;;;;18.48;11.90;;;;;;;;;;5093876;28;20054;-74
2023/06/18 02:33:22;;;;;;;16.50;11.13;;;;;;;;;;5092681;28;20109;-74
2023/06/18 02:35:48;;;;;;;19.75;12.13;;;;;;;;;;5075982;28;20016;-76
2023/06/18 02:38:13;;;;;;;18.70;11.15;;;;;;;;;;5076164;28;20441;-73
2023/06/18 02:40:40;;;;;;;16.33;11.18;;;;;;;;;;5094022;28;20012;-75
2023/06/18 02:43:05;;;;;;;15.95;10.50;;;;;;;;;;5094106;28;20028;-76
2023/06/18 02:45:38;;;;;;;15.53;9.93;;;;;;;;;;5084181;28;20048;-75
2023/06/18 02:48:04;;;;;;;13.40;10.30;;;;;;;;;;5073608;28;20267;-75
2023/06/18 02:50:32;;;;;;;15.30;10.45;;;;;;;;;;5055840;28;20492;-75
2023/06/18 02:52:57;;;;;;;16.08;9.57;;;;;;;;;;5072378;28;20032;-73
2023/06/18 02:55:23;;;;;;;14.93;10.20;;;;;;;;;;5073684;28;20525;-75
2023/06/18 02:57:49;;;;;;;19.95;10.55;;;;;;;;;;5073324;28;20087;-76
2023/06/18 03:00:16;;;;;;;16.42;9.93;;;;;;;;;;5073398;28;20054;-75
2023/06/18 03:02:42;;;;;;;13.40;10.00;;;;;;;;;;5039033;28;20031;-76
2023/06/18 03:05:11;;;;;;;15.65;9.95;;;;;;;;;;5073317;28;20491;-75
2023/06/18 03:07:37;;;;;;;13.68;9.35;;;;;;;;;;5073608;28;20021;-75
2023/06/18 03:10:04;;;;;;;14.02;9.43;;;;;;;;;;5073434;28;20020;-73
2023/06/18 03:12:40;;;;;;;12.45;9.27;;;;;;;;;;5055316;28;20020;-75
2023/06/18 03:15:06;;;;;;;15.13;9.80;;;;;;;;;;5055024;28;20039;-75
2023/06/18 03:17:31;;;;;;;15.15;9.25;;;;;;;;;;5073497;28;20476;-76
2023/06/18 03:19:57;;;;;;;15.43;10.05;;;;;;;;;;5055247;28;20381;-75
2023/06/18 03:22:22;;;;;;;12.70;9.13;;;;;;;;;;5055142;28;20016;-75
2023/06/18 03:24:49;;;;;;;13.30;8.95;;;;;;;;;;5073300;28;20031;-75
2023/06/18 03:27:15;;;;;;;17.02;9.98;;;;;;;;;;5055170;28;20461;-76
2023/06/18 03:29:42;;;;;;;12.07;9.15;;;;;;;;;;5073085;28;20016;-74
2023/06/18 03:32:08;;;;;;;12.85;9.32;;;;;;;;;;5072351;28;20430;-74
2023/06/18 03:34:35;;;;;;;12.43;8.63;;;;;;;;;;5055235;28;20017;-75
2023/06/18 03:37:02;;;;;;;11.27;8.30;;;;;;;;;;5073165;28;20051;-75
2023/06/18 03:39:27;;;;;;;13.88;9.25;;;;;;;;;;5073087;28;20024;-75
2023/06/18 03:41:53;;;;;;;14.13;9.35;;;;;;;;;;5072924;28;20012;-76
2023/06/18 03:44:20;;;;;;;15.48;8.52;;;;;;;;;;5073384;28;20020;-75
2023/06/18 03:46:45;;;;;;;11.25;8.75;;;;;;;;;;5092833;28;20531;-75
2023/06/18 03:49:12;;;;;;;11.35;8.68;;;;;;;;;;5093385;28;20026;-75
2023/06/18 03:51:37;;;;;;;13.30;9.25;;;;;;;;;;5075290;28;20024;-75
2023/06/18 03:54:03;;;;;;;14.10;9.70;;;;;;;;;;5093117;28;19915;-76
2023/06/18 03:56:29;;;;;;;16.83;9.25;;;;;;;;;;5092881;28;20027;-75
2023/06/18 03:58:57;;;;;;;14.63;9.70;;;;;;;;;;5092947;28;20401;-75
2023/06/18 04:01:23;;;;;;;12.13;9.27;;;;;;;;;;5093267;28;20024;-76
2023/06/18 04:03:48;;;;;;;14.05;9.60;;;;;;;;;;5075148;28;20032;-76
2023/06/18 04:06:14;;;;;;;10.73;8.88;;;;;;;;;;5074769;28;20048;-75
2023/06/18 04:08:42;;;;;;;15.57;9.13;;;;;;;;;;5093290;28;20030;-75
2023/06/18 04:11:07;;;;;;;13.02;7.80;;;;;;;;;;5087029;28;20090;-75
2023/06/18 04:13:35;;;;;;;14.65;9.32;;;;;;;;;;5092851;28;20028;-76
2023/06/18 04:16:02;;;;;;;14.23;8.38;;;;;;;;;;5093224;28;20070;-76
2023/06/18 04:18:29;;;;;;;15.23;9.13;;;;;;;;;;5093488;28;20073;-76
2023/06/18 04:20:55;;;;;;;11.93;8.57;;;;;;;;;;5092983;28;20020;-76
2023/06/18 04:23:22;;;;;;;14.25;8.85;;;;;;;;;;5074751;28;20078;-77
2023/06/18 04:25:48;;;;;;;19.08;10.57;;;;;;;;;;5093062;28;20024;-76
2023/06/18 04:28:14;;;;;;;14.82;9.73;;;;;;;;;;5096531;28;20099;-75
2023/06/18 04:30:40;;;;;;;17.30;10.60;;;;;;;;;;5078425;28;20020;-76
2023/06/18 04:33:08;;;;;;;13.60;9.38;;;;;;;;;;5061567;28;20073;-76
2023/06/18 04:35:34;;;;;;;18.25;10.27;;;;;;;;;;5096479;28;20048;-75
2023/06/18 04:38:01;;;;;;;16.90;10.40;;;;;;;;;;5096206;28;20073;-75
2023/06/18 04:40:27;;;;;;;18.30;10.20;;;;;;;;;;5095764;28;20035;-72
2023/06/18 04:42:52;;;;;;;17.23;10.32;;;;;;;;;;5098447;28;20035;-73
2023/06/18 04:45:18;;;;;;;12.93;10.50;;;;;;;;;;5089079;28;20033;-73
2023/06/18 04:47:45;;;;;;;16.58;10.20;;;;;;;;;;5078239;28;20023;-72
2023/06/18 04:50:10;;;;;;;19.23;10.30;;;;;;;;;;5077493;28;20020;-73
2023/06/18 04:52:36;;;;;;;18.75;10.60;;;;;;;;;;5077707;28;20062;-71
2023/06/18 04:55:02;;;;;;;16.30;10.97;;;;;;;;;;5076581;28;20492;-74
2023/06/18 04:57:27;;;;;;;18.30;10.00;;;;;;;;;;5076020;28;20254;-73
2023/06/18 04:59:54;;;;;;;19.15;10.35;;;;;;;;;;5057615;28;20457;-73
2023/06/18 05:02:20;;;;;;;14.85;10.48;;;;;;;;;;5075492;28;20481;-73
2023/06/18 05:04:46;;;;;;;18.98;10.77;;;;;;;;;;5057594;28;20031;-73
2023/06/18 05:07:15;;;;;;;16.85;10.13;;;;;;;;;;5075981;28;20020;-72
2023/06/18 05:09:41;;;;;;;16.77;11.13;;;;;;;;;;5077353;28;20055;-73
2023/06/18 05:12:06;;;;;;;16.83;10.37;;;;;;;;;;5056986;28;20064;-73
2023/06/18 05:14:31;;;;;;;17.10;9.85;;;;;;;;;;5078457;28;20262;-73
2023/06/18 05:16:58;;;;;;;20.03;10.03;;;;;;;;;;5075755;28;20123;-73
2023/06/18 05:19:24;;;;;;;16.65;10.60;;;;;;;;;;5075411;28;20303;-73
2023/06/18 05:21:51;;;;;;;18.92;9.98;;;;;;;;;;5076878;28;20099;-73
2023/06/18 05:24:16;;;;;;;16.17;10.25;;;;;;;;;;5075136;28;20017;-73
2023/06/18 05:26:43;;;;;;;17.15;10.35;;;;;;;;;;5074394;28;20027;-72
2023/06/18 05:29:08;;;;;;;12.50;9.55;;;;;;;;;;5057479;28;20025;-72
2023/06/18 05:31:34;;;;;;;14.80;10.32;;;;;;;;;;5075260;28;20425;-73
2023/06/18 05:33:59;;;;;;;17.17;11.83;;;;;;;;;;5074936;28;20029;-72
2023/06/18 05:36:25;;;;;;;16.23;10.63;;;;;;;;;;5073834;28;20277;-72
2023/06/18 05:39:00;;;;;;;16.83;11.60;;;;;;;;;;5074315;28;20365;-72
2023/06/18 05:41:26;;;;;;;12.73;10.90;;;;;;;;;;5075146;28;20097;-72
2023/06/18 05:44:00;;;;;;;17.73;11.68;;;;;;;;;;5056804;28;20025;-73
2023/06/18 05:46:25;;;;;;;14.00;10.98;;;;;;;;;;5091516;28;20046;-72
2023/06/18 05:48:51;;;;;;;16.63;10.47;;;;;;;;;;5093875;28;20082;-71
2023/06/18 05:51:17;;;;;;;14.88;10.35;;;;;;;;;;5076888;28;20308;-70
2023/06/18 05:53:42;;;;;;;14.52;9.48;;;;;;;;;;5076780;28;20062;-72
2023/06/18 05:56:08;;;;;;;13.70;8.97;;;;;;;;;;5095074;28;20016;-72
2023/06/18 05:58:37;;;;;;;12.52;9.65;;;;;;;;;;5094701;28;20313;-73
2023/06/18 06:01:04;;;;;;;16.58;10.18;;;;;;;;;;5094872;28;20019;-72
2023/06/18 06:03:32;;;;;;;11.20;8.98;;;;;;;;;;5084781;28;20021;-73
2023/06/18 06:05:57;;;;;;;12.75;9.40;;;;;;;;;;5074606;28;20027;-71
2023/06/18 06:08:34;;;;;;;9.83;8.83;;;;;;;;;;5085648;28;20020;-71
2023/06/18 06:11:00;;;;;;;10.80;8.63;;;;;;;;;;5077567;28;20067;-71
2023/06/18 06:13:29;;;;;;;12.05;8.57;;;;;;;;;;5077317;28;20480;-73
2023/06/18 06:15:54;;;;;;;12.38;8.60;;;;;;;;;;5082608;28;20520;-72
2023/06/18 06:18:21;;;;;;;11.03;8.90;;;;;;;;;;5074058;28;20139;-71
2023/06/18 06:20:47;;;;;;;12.07;8.88;;;;;;;;;;5056256;28;20047;-72
2023/06/18 06:23:12;;;;;;;9.43;8.50;;;;;;;;;;5074322;28;20103;-73
2023/06/18 06:25:38;;;;;;;10.73;8.03;;;;;;;;;;5074183;28;20154;-73
2023/06/18 06:28:05;;;;;;;9.88;8.82;;;;;;;;;;5073823;28;20269;-71
2023/06/18 06:30:30;;;;;;;11.77;9.50;;;;;;;;;;5056007;28;20012;-72
2023/06/18 06:32:55;;;;;;;10.70;8.77;;;;;;;;;;5073971;28;20024;-72
2023/06/18 06:35:23;;;;;;;9.30;8.40;;;;;;;;;;5073947;28;20320;-74
2023/06/18 06:37:50;;;;;;;9.77;7.85;;;;;;;;;;5071532;28;20024;-72
2023/06/18 06:40:16;;;;;;;10.80;8.88;;;;;;;;;;5073540;28;20013;-72
2023/06/18 06:42:41;;;;;;;11.17;8.40;;;;;;;;;;5073061;28;20112;-73
2023/06/18 06:45:06;;;;;;;13.00;8.93;;;;;;;;;;5067173;28;20053;-74
2023/06/18 06:47:33;;;;;;;11.25;8.80;;;;;;;;;;5051585;28;20275;-73
2023/06/18 06:49:59;;;;;;;9.15;8.25;;;;;;;;;;5052322;28;20414;-72
2023/06/18 06:52:25;;;;;;;13.55;8.40;;;;;;;;;;5052332;28;20036;-73
2023/06/18 06:54:51;;;;;;;9.32;8.43;;;;;;;;;;5035307;28;20059;-74
2023/06/18 06:57:17;;;;;;;9.20;7.53;;;;;;;;;;5052723;28;20032;-73
2023/06/18 06:59:43;;;;;;;9.70;7.53;;;;;;;;;;5052869;28;20013;-72
2023/06/18 07:02:09;;;;;;;8.52;7.43;;;;;;;;;;5052922;28;20037;-72
2023/06/18 07:04:35;;;;;;;8.88;8.07;;;;;;;;;;5053168;28;20021;-72
2023/06/18 07:07:02;;;;;;;8.13;7.13;;;;;;;;;;5052439;28;20017;-72
2023/06/18 07:09:28;;;;;;;7.68;6.88;;;;;;;;;;5052716;28;20025;-73
2023/06/18 07:11:54;;;;;;;8.60;7.70;;;;;;;;;;5035305;28;20378;-71
2023/06/18 07:14:19;;;;;;;7.80;7.05;;;;;;;;;;5053069;28;20021;-72
2023/06/18 07:16:46;;;;;;;9.97;7.53;;;;;;;;;;5053343;28;20147;-72
2023/06/18 07:19:11;;;;;;;8.38;7.47;;;;;;;;;;5052729;28;20033;-74
2023/06/18 07:21:37;;;;;;;9.03;7.03;;;;;;;;;;5052532;28;20009;-74
2023/06/18 07:24:02;;;;;;;8.27;7.47;;;;;;;;;;5053035;28;20029;-75
2023/06/18 07:26:29;;;;;;;7.72;6.80;;;;;;;;;;5052660;28;20346;-73
2023/06/18 07:28:55;;;;;;;7.32;6.55;;;;;;;;;;5054235;28;20051;-75
2023/06/18 07:31:20;;;;;;;7.32;6.63;;;;;;;;;;5073071;28;20027;-75
2023/06/18 07:33:47;;;;;;;7.73;6.90;;;;;;;;;;5073180;28;20033;-74
2023/06/18 07:36:14;;;;;;;7.45;6.15;;;;;;;;;;5072503;28;20108;-76
2023/06/18 07:38:39;;;;;;;8.18;6.88;;;;;;;;;;5053643;28;20017;-77
2023/06/18 07:41:11;;;;;;;7.25;6.55;;;;;;;;;;5053278;28;20079;-75
2023/06/18 07:43:39;;;;;;;6.45;5.85;;;;;;;;;;5049956;28;20477;-78
2023/06/18 07:46:04;;;;;;;7.43;6.68;;;;;;;;;;5066508;28;20047;-76
2023/06/18 07:48:32;;;;;;;7.53;6.77;;;;;;;;;;5073200;28;20013;-76
2023/06/18 07:51:00;;;;;;;7.03;6.50;;;;;;;;;;5073585;28;20025;-78
2023/06/18 07:53:26;;;;;;;6.72;6.13;;;;;;;;;;5073363;28;20030;-76
2023/06/18 07:55:52;;;;;;;5.72;5.22;;;;;;;;;;5073201;28;20015;-75
2023/06/18 07:58:19;;;;;;;6.28;5.65;;;;;;;;;;5073053;28;20048;-76
2023/06/18 08:00:46;;;;;;;7.40;5.45;;;;;;;;;;5074210;28;20024;-77
2023/06/18 08:03:12;;;;;;;5.72;5.22;;;;;;;;;;5077309;28;20031;-76
2023/06/18 08:05:37;;;;;;;5.45;4.60;;;;;;;;;;5076505;28;20024;-75
2023/06/18 08:08:03;;;;;;;5.00;4.60;;;;;;;;;;5077016;28;20046;-74
2023/06/18 08:10:29;;;;;;;5.20;4.80;;;;;;;;;;5076777;28;20024;-74
2023/06/18 08:13:05;;;;;;;5.25;4.85;;;;;;;;;;5077201;28;20340;-77
2023/06/18 08:15:31;;;;;;;5.13;4.63;;;;;;;;;;5077120;28;20019;-75
2023/06/18 08:17:57;;;;;;;5.85;5.35;;;;;;;;;;5077008;28;20017;-78
2023/06/18 08:20:25;;;;;;;5.18;4.78;;;;;;;;;;5076875;28;20017;-77
2023/06/18 08:22:50;;;;;;;9.20;5.07;;;;;;;;;;5076817;28;20099;-72
2023/06/18 08:25:17;;;;;;;5.67;4.90;;;;;;;;;;5076534;28;20072;-77
2023/06/18 08:27:44;;;;;;;9.60;4.72;;;;;;;;;;5075967;28;20097;-76
2023/06/18 08:30:11;;;;;;;5.40;4.90;;;;;;;;;;5076404;28;20016;-75
2023/06/18 08:32:38;;;;;;;5.35;4.68;;;;;;;;;;5076161;28;20599;-78
2023/06/18 08:35:06;;;;;;;6.72;4.80;;;;;;;;;;5076679;28;20465;-74
2023/06/18 08:37:34;;;;;;;5.03;4.53;;;;;;;;;;5076566;28;20020;-74
2023/06/18 08:40:01;;;;;;;6.28;4.53;;;;;;;;;;5076387;28;20029;-76
2023/06/18 08:42:27;;;;;;;4.35;3.95;;;;;;;;;;5076376;28;20016;-74
2023/06/18 08:44:54;;;;;;;4.50;3.85;;;;;;;;;;5072683;28;20037;-74
2023/06/18 08:47:23;;;;;;;4.05;3.65;;;;;;;;;;5056911;28;20020;-77
2023/06/18 08:49:50;;;;;;;4.30;3.92;;;;;;;;;;5056447;28;20021;-74
2023/06/18 08:52:18;;;;;;;5.32;3.58;;;;;;;;;;5056736;28;20465;-74
2023/06/18 08:54:45;;;;;;;4.32;4.00;;;;;;;;;;5039784;28;20025;-75
2023/06/18 08:57:16;;;;;;;4.55;4.15;;;;;;;;;;5057482;28;20053;-75
2023/06/18 08:59:42;;;;;;;4.22;3.80;;;;;;;;;;5057366;28;20021;-75
2023/06/18 09:02:10;;;;;;;4.03;3.63;;;;;;;;;;5038837;28;20060;-77
2023/06/18 09:04:37;;;;;;;3.60;3.30;;;;;;;;;;5057053;28;20021;-74
2023/06/18 09:07:03;;;;;;;4.80;3.70;;;;;;;;;;5054156;28;20029;-73
2023/06/18 09:09:30;;;;;;;3.70;3.40;;;;;;;;;;5075572;28;20025;-75
2023/06/18 09:11:57;;;;;;;3.65;3.35;;;;;;;;;;5074605;28;20025;-73
2023/06/18 09:14:24;;;;;;;4.20;3.70;;;;;;;;;;5057060;28;20020;-73
2023/06/18 09:16:54;;;;;;;3.47;3.17;;;;;;;;;;5057670;28;20036;-75
2023/06/18 09:19:21;;;;;;;4.47;3.47;;;;;;;;;;5075597;28;20372;-79
2023/06/18 09:21:55;;;;;;;4.82;3.33;;;;;;;;;;5057224;28;20025;-78
2023/06/18 09:24:27;;;;;;;5.13;3.58;;;;;;;;;;5075167;28;20024;-77
2023/06/18 09:27:00;;;;;;;3.83;3.53;;;;;;;;;;5075254;28;20117;-78
2023/06/18 09:29:27;;;;;;;3.28;2.97;;;;;;;;;;5074503;28;20031;-77
2023/06/18 09:31:53;;;;;;;3.42;3.13;;;;;;;;;;5055455;28;20028;-77
2023/06/18 09:34:19;;;;;;;3.40;3.10;;;;;;;;;;5056918;28;20027;-77
2023/06/18 09:36:47;;;;;;;4.10;3.30;;;;;;;;;;5074822;28;20099;-77
2023/06/18 09:39:20;;;;;;;3.03;2.83;;;;;;;;;;5040497;28;20028;-77
2023/06/18 09:41:47;;;;;;;5.45;3.60;;;;;;;;;;5057172;28;20098;-75
2023/06/18 09:44:14;;;;;;;3.58;3.28;;;;;;;;;;5075266;28;20024;-77
2023/06/18 09:46:44;;;;;;;3.70;3.40;;;;;;;;;;5093477;28;20060;-76
2023/06/18 09:49:10;;;;;;;4.80;3.50;;;;;;;;;;5095032;28;20346;-77
2023/06/18 09:51:41;;;;;;;3.53;3.17;;;;;;;;;;5094190;28;20102;-77
2023/06/18 09:54:06;;;;;;;3.90;3.50;;;;;;;;;;5094176;28;20028;-77
2023/06/18 09:56:32;;;;;;;3.42;3.17;;;;;;;;;;5075879;28;20055;-78
2023/06/18 09:58:59;;;;;;;4.30;3.47;;;;;;;;;;5059342;28;20472;-75
2023/06/18 10:01:29;;;;;;;3.85;3.15;;;;;;;;;;5094298;28;20020;-77
2023/06/18 10:03:55;;;;;;;4.35;3.40;;;;;;;;;;5076025;28;20333;-78
2023/06/18 10:06:22;;;;;;;4.05;3.63;;;;;;;;;;5095454;28;20421;-77
2023/06/18 10:08:56;;;;;;;3.75;3.35;;;;;;;;;;5095020;28;20107;-76
2023/06/18 10:11:22;;;;;;;3.38;3.10;;;;;;;;;;5095347;28;20028;-77
2023/06/18 10:13:49;;;;;;;4.22;3.83;;;;;;;;;;5095051;28;20038;-78
2023/06/18 10:16:17;;;;;;;4.30;3.42;;;;;;;;;;5095195;28;20020;-78
2023/06/18 10:19:05;;;;;;;5.50;3.47;;;;;;;;;;5095140;28;20091;-79
2023/06/18 10:21:31;;;;;;;3.55;3.25;;;;;;;;;;5060489;28;20028;-76
2023/06/18 10:24:02;;;;;;;3.40;3.10;;;;;;;;;;5094681;28;20035;-78
2023/06/18 10:29:05;;;;;;;4.53;3.55;;;;;;;;;;5084055;28;20125;-78
2023/06/18 10:31:30;;;;;;;3.60;3.28;;;;;;;;;;5101568;28;20035;-79
2023/06/18 10:33:56;;;;;;;5.32;3.35;;;;;;;;;;5095001;28;20024;-79
2023/06/18 10:36:28;;;;;;;3.95;3.63;;;;;;;;;;5076780;28;20106;-79
2023/06/18 10:38:54;;;;;;;3.53;3.22;;;;;;;;;;5076767;28;20107;-79
2023/06/18 10:41:21;;;;;;;3.95;3.40;;;;;;;;;;5076410;28;20066;-79
2023/06/18 10:43:50;;;;;;;5.22;3.83;;;;;;;;;;5094888;28;20482;-78
2023/06/18 10:46:25;;;;;;;3.50;3.20;;;;;;;;;;5076747;28;20063;-79
2023/06/18 10:49:08;;;;;;;3.65;3.35;;;;;;;;;;5095205;28;20031;-77
2023/06/18 10:51:35;;;;;;;4.47;4.07;;;;;;;;;;5093929;28;20425;-78
2023/06/18 10:54:23;;;;;;;4.22;3.80;;;;;;;;;;5076363;28;20476;-77
2023/06/18 10:56:52;;;;;;;4.72;4.30;;;;;;;;;;5094694;28;20016;-78
2023/06/18 10:59:36;;;;;;;4.18;3.78;;;;;;;;;;5076468;28;20445;-78
2023/06/18 11:02:04;;;;;;;6.15;3.97;;;;;;;;;;5094957;28;20016;-79
2023/06/18 11:04:31;;;;;;;5.20;4.00;;;;;;;;;;5094855;28;20438;-78
2023/06/18 11:07:16;;;;;;;4.07;3.70;;;;;;;;;;5076368;28;20028;-78
2023/06/18 11:09:53;;;;;;;3.80;3.50;;;;;;;;;;5093957;28;20058;-76
2023/06/18 11:12:24;;;;;;;3.95;3.65;;;;;;;;;;5096443;28;20110;-78
2023/06/18 11:14:49;;;;;;;;;;;;;;;;;;5097234;28;20024;-79
2023/06/18 11:17:23;;;;;;;5.27;3.90;;;;;;;;;;5077700;28;20221;-78
2023/06/18 11:19:49;;;;;;;4.47;4.03;;;;;;;;;;5096102;28;20016;-79
2023/06/18 11:22:16;;;;;;;4.50;4.10;;;;;;;;;;5077156;28;20113;-78
2023/06/18 11:24:43;;;;;;;6.10;4.68;;;;;;;;;;5095126;28;20023;-79
2023/06/18 11:27:11;;;;;;;4.68;4.28;;;;;;;;;;5077354;28;20048;-78
2023/06/18 11:29:46;;;;;;;7.07;4.03;;;;;;;;;;5096063;28;20361;-79
2023/06/18 11:32:15;;;;;;;4.50;4.10;;;;;;;;;;5096329;28;20345;-78
2023/06/18 11:34:41;;;;;;;5.93;3.75;;;;;;;;;;5096059;28;20177;-77
2023/06/18 11:37:09;;;;;;;4.45;3.70;;;;;;;;;;5100932;28;20024;-77
2023/06/18 11:39:36;;;;;;;3.08;2.88;;;;;;;;;;5069414;28;20019;-79
2023/06/18 11:42:14;;;;;;;4.07;3.50;;;;;;;;;;5104103;28;20017;-79
2023/06/18 11:44:52;;;;;;;4.20;3.80;;;;;;;;;;5083902;28;20045;-77
2023/06/18 11:47:18;;;;;;;4.53;4.13;;;;;;;;;;5100459;28;20031;-78
2023/06/18 11:49:44;;;;;;;4.28;3.70;;;;;;;;;;5066638;28;20094;-77
2023/06/18 11:52:12;;;;;;;4.00;3.35;;;;;;;;;;5100444;28;20012;-77
2023/06/18 11:54:41;;;;;;;3.90;3.60;;;;;;;;;;5081445;28;20155;-77
2023/06/18 11:57:07;;;;;;;6.38;3.70;;;;;;;;;;5081403;28;20077;-78
2023/06/18 11:59:35;;;;;;;3.55;3.00;;;;;;;;;;5080449;28;20028;-77
2023/06/18 12:02:13;;;;;;;5.38;3.60;;;;;;;;;;5098198;28;20056;-77
2023/06/18 12:04:47;;;;;;;4.63;4.07;;;;;;;;;;5099163;28;20039;-78
2023/06/18 12:07:17;;;;;;;6.00;4.10;;;;;;;;;;5098617;28;20024;-78
2023/06/18 12:09:43;;;;;;;5.95;4.30;;;;;;;;;;5081723;28;20048;-79
2023/06/18 12:12:32;;;;;;;4.53;3.50;;;;;;;;;;5080683;28;20032;-77
2023/06/18 12:14:58;;;;;;;3.65;3.22;;;;;;;;;;5067563;28;20028;-79
2023/06/18 12:17:48;;;;;;;5.83;3.63;;;;;;;;;;5079864;28;20016;-79
2023/06/18 12:20:15;;;;;;;4.10;3.70;;;;;;;;;;5097738;28;20427;-78
2023/06/18 12:22:41;;;;;;;4.13;3.70;;;;;;;;;;5079921;28;20034;-78
2023/06/18 12:25:11;;;;;;;4.15;3.78;;;;;;;;;;5079828;28;20409;-78
2023/06/18 12:27:41;;;;;;;4.10;3.63;;;;;;;;;;5097183;28;20044;-80
2023/06/18 12:30:07;;;;;;;7.18;3.78;;;;;;;;;;5097996;28;20031;-79
2023/06/18 12:32:33;;;;;;;6.43;3.63;;;;;;;;;;5098730;28;20047;-78
2023/06/18 12:35:09;;;;;;;4.22;3.65;;;;;;;;;;5080654;28;20372;-78
2023/06/18 12:37:36;;;;;;;3.92;3.40;;;;;;;;;;5099156;28;20053;-81
2023/06/18 12:40:10;;;;;;;3.55;3.22;;;;;;;;;;5099106;28;20016;-79
2023/06/18 12:42:37;;;;;;;4.70;3.53;;;;;;;;;;5100075;28;20376;-79
2023/06/18 12:45:03;;;;;;;4.90;3.20;;;;;;;;;;5081700;28;20361;-78
2023/06/18 12:47:30;;;;;;;3.63;3.33;;;;;;;;;;5098174;28;20016;-78
2023/06/18 12:49:57;;;;;;;3.85;3.47;;;;;;;;;;5099705;28;20036;-78
2023/06/18 12:52:25;;;;;;;5.03;3.15;;;;;;;;;;5099757;28;20020;-78
2023/06/18 12:54:50;;;;;;;3.70;3.38;;;;;;;;;;5099331;28;20016;-78
2023/06/18 12:57:17;;;;;;;3.97;3.37;;;;;;;;;;5099159;28;20031;-77
2023/06/18 12:59:52;;;;;;;4.72;3.30;;;;;;;;;;5099272;28;20108;-78
2023/06/18 13:02:27;;;;;;;5.03;3.40;;;;;;;;;;5097859;28;20436;-78
2023/06/18 13:05:00;;;;;;;3.50;3.20;;;;;;;;;;5097823;28;20020;-77
2023/06/18 13:07:26;;;;;;;3.92;3.33;;;;;;;;;;5097704;28;20374;-78
2023/06/18 13:09:52;;;;;;;4.53;3.20;;;;;;;;;;5098475;28;20036;-78
2023/06/18 13:12:19;;;;;;;3.53;3.22;;;;;;;;;;5098259;28;20262;-78
2023/06/18 13:14:46;;;;;;;3.50;3.20;;;;;;;;;;5080843;28;20016;-79
2023/06/18 13:17:13;;;;;;;4.53;3.20;;;;;;;;;;5098729;28;20016;-77
2023/06/18 13:19:39;;;;;;;4.60;2.97;;;;;;;;;;5097839;28;20023;-79
2023/06/18 13:22:08;;;;;;;3.58;3.28;;;;;;;;;;5097469;28;20020;-79
2023/06/18 13:24:34;;;;;;;3.60;3.30;;;;;;;;;;5097217;28;20468;-78
2023/06/18 13:27:02;;;;;;;4.20;3.30;;;;;;;;;;5076718;28;20046;-78
2023/06/18 13:29:27;;;;;;;3.63;2.95;;;;;;;;;;5076969;28;20023;-78
2023/06/18 13:31:54;;;;;;;2.95;2.72;;;;;;;;;;5077341;28;20153;-78
2023/06/18 13:34:20;;;;;;;3.08;2.80;;;;;;;;;;5058594;28;20550;-78
2023/06/18 13:36:48;;;;;;;2.90;2.67;;;;;;;;;;5077260;28;20091;-77
2023/06/18 13:39:14;;;;;;;3.80;3.40;;;;;;;;;;5041452;28;20025;-77
2023/06/18 13:41:41;;;;;;;3.85;3.22;;;;;;;;;;5041543;28;20027;-77
2023/06/18 13:44:07;;;;;;;3.35;3.05;;;;;;;;;;5076234;28;20461;-77
2023/06/18 13:46:34;;;;;;;3.40;3.10;;;;;;;;;;5076867;28;20021;-78
2023/06/18 13:48:59;;;;;;;3.40;3.08;;;;;;;;;;5075756;28;20032;-77
2023/06/18 13:51:25;;;;;;;4.38;3.17;;;;;;;;;;5076213;28;20380;-78
2023/06/18 13:53:50;;;;;;;3.95;3.55;;;;;;;;;;5075482;28;20362;-79
2023/06/18 13:56:17;;;;;;;5.05;3.42;;;;;;;;;;5076159;28;20479;-78
2023/06/18 13:58:46;;;;;;;4.07;3.63;;;;;;;;;;5075864;28;20152;-78
2023/06/18 14:01:12;;;;;;;4.95;3.58;;;;;;;;;;5075962;28;20067;-77
2023/06/18 14:03:40;;;;;;;6.75;3.80;;;;;;;;;;5075372;28;20048;-78
2023/06/18 14:06:13;;;;;;;3.75;3.45;;;;;;;;;;5075391;28;20057;-78
2023/06/18 14:08:42;;;;;;;4.32;3.35;;;;;;;;;;5075802;28;20047;-78
2023/06/18 14:11:10;;;;;;;4.63;3.25;;;;;;;;;;5058065;28;20052;-78
2023/06/18 14:13:42;;;;;;;5.13;3.53;;;;;;;;;;5074589;28;20102;-78
2023/06/18 14:16:09;;;;;;;;;;;;;;;;;;5075135;28;20464;-77
2023/06/18 14:18:37;;;;;;;5.03;4.22;;;;;;;;;;5075175;28;19904;-78
2023/06/18 14:21:03;;;;;;;4.45;3.80;;;;;;;;;;5074637;28;20017;-78
2023/06/18 14:23:29;;;;;;;4.43;3.53;;;;;;;;;;5075202;28;20024;-78
2023/06/18 14:25:55;;;;;;;3.78;3.47;;;;;;;;;;5073808;28;20032;-77
2023/06/18 14:28:22;;;;;;;3.90;3.53;;;;;;;;;;5086976;28;20058;-76
2023/06/18 14:30:55;;;;;;;4.03;3.63;;;;;;;;;;5094174;28;20020;-77
2023/06/18 14:33:21;;;;;;;4.18;3.67;;;;;;;;;;5075757;28;20016;-75
2023/06/18 14:35:51;;;;;;;4.28;3.88;;;;;;;;;;5092696;28;20030;-77
2023/06/18 14:38:18;;;;;;;7.35;4.38;;;;;;;;;;5093419;28;20031;-77
2023/06/18 14:40:43;;;;;;;4.60;4.15;;;;;;;;;;5094234;28;20015;-78